Hovedside
METAR-TAF:

METAR-TAF

Lufthavner :

Rovaniemi lufthavn

Rovaniemi, Finland

breddegrad: 66-34N, lengdegrad: 025-50E, høyde over havet: 197 m

Gjeldene værobservasjon

Denne rapporten ble laget for 33 minutter siden, klokken 11:20 UTC
Vind 5 kt fra Sørøst, skiftende mellom Nordøst og Sør-sørvest
Temperatur 22°C
Luftfuktighet 53%
Trykk 1014 hPa
Sikt 10 km eller mer
ingen skyer under 1500 m og ingen bygeskyer

METAR: EFRO 301120Z 13005KT 050V200 CAVOK 22/12 Q1014

Tid: 14:53 (11:53 UTC)

Varsel

Denne rapporten ble laget for 3 timer og 18 minutter siden, klokken 08:35 UTC
Varsel gyldig fra 30. klokken 09 UTC til 31. klokken 09 UTC
Vind 8 kt fra Øst-sørøst
Sikt 10 km eller mer
ingen skyer under 1500 m og ingen bygeskyer

TAF: EFRO 300835Z 3009/3109 12008KT CAVOK

Værobservasjoner og værvarsel for over 4000 flyplasser (METAR- og TAF-rapporter).

Tilgjengelige stasjoner er representert av de røde og gule prikkene på kartet.

Hold musepekeren over prikken for å se navnet på stasjonen.

Klikk så for å se værobservasjoner og -varsler.

For å forandre kartet kan du klikke på den grønne knappen med svart kryss for å zoome inn, på den grønne knappen med strek for å zoome ut, eller på de grønne pilene for å se tilstøtende kart.


METAR-TAF: